createdAt,value
2022-12-01T00:00:23.572Z,41.13
2022-12-01T00:02:50.483Z,40.94
2022-12-01T00:05:17.161Z,40.80
2022-12-01T00:07:43.711Z,40.67
2022-12-01T00:10:26.596Z,41.74
2022-12-01T00:12:54.055Z,42.21
2022-12-01T00:15:21.006Z,42.11
2022-12-01T00:17:48.926Z,42.24
2022-12-01T00:20:16.569Z,42.47
2022-12-01T00:22:44.367Z,43.36
2022-12-01T00:25:11.889Z,43.31
2022-12-01T00:27:38.523Z,44.13
2022-12-01T00:30:05.947Z,44.74
2022-12-01T00:32:32.686Z,44.61
2022-12-01T00:34:59.217Z,43.83
2022-12-01T00:37:25.767Z,43.92
2022-12-01T00:39:52.292Z,43.45
2022-12-01T00:42:20.808Z,45.17
2022-12-01T00:44:47.819Z,45.50
2022-12-01T00:47:14.572Z,44.58
2022-12-01T00:49:41.344Z,44.09
2022-12-01T00:52:08.253Z,44.98
2022-12-01T00:54:34.884Z,44.27
2022-12-01T00:57:01.455Z,45.43
2022-12-01T00:59:27.981Z,45.28
2022-12-01T01:01:54.592Z,45.07
2022-12-01T01:04:21.255Z,44.37
2022-12-01T01:06:48.068Z,45.36
2022-12-01T01:09:15.537Z,45.69
2022-12-01T01:11:41.996Z,45.31
2022-12-01T01:14:08.736Z,44.35
2022-12-01T01:16:35.875Z,45.37
2022-12-01T01:19:02.581Z,45.29
2022-12-01T01:21:29.158Z,45.24
2022-12-01T01:23:55.761Z,45.55
2022-12-01T01:26:23.956Z,44.38
2022-12-01T01:28:51.420Z,45.46
2022-12-01T01:31:20.634Z,44.17
2022-12-01T01:33:47.231Z,44.66
2022-12-01T01:36:14.374Z,44.14
2022-12-01T01:38:41.658Z,44.59
2022-12-01T01:41:08.914Z,44.61
2022-12-01T01:43:56.087Z,44.29
2022-12-01T01:46:24.419Z,43.50
2022-12-01T01:48:54.033Z,44.21
2022-12-01T01:51:32.609Z,44.33
2022-12-01T01:54:03.747Z,44.32
2022-12-01T01:56:30.982Z,44.65
2022-12-01T01:58:59.088Z,45.47
2022-12-01T02:01:25.829Z,45.28
2022-12-01T02:03:54.379Z,45.37
2022-12-01T02:06:22.242Z,45.03
2022-12-01T02:08:49.123Z,44.05
2022-12-01T02:11:18.687Z,44.91
2022-12-01T02:14:04.371Z,44.41
2022-12-01T02:16:43.276Z,44.56
2022-12-01T02:19:35.974Z,44.76
2022-12-01T02:22:23.424Z,45.78
2022-12-01T02:25:02.163Z,46.64
2022-12-01T02:27:44.023Z,45.62
2022-12-01T02:30:17.376Z,46.07
2022-12-01T02:33:05.724Z,46.55
2022-12-01T02:35:38.197Z,44.76
2022-12-01T02:38:10.772Z,45.53
2022-12-01T02:40:40.458Z,45.79
2022-12-01T02:43:13.391Z,45.56
2022-12-01T02:45:47.355Z,45.24
2022-12-01T02:48:27.382Z,45.81
2022-12-01T02:50:57.792Z,46.88
2022-12-01T02:53:24.919Z,45.46
2022-12-01T02:55:52.769Z,47.05
2022-12-01T02:58:20.115Z,46.65
2022-12-01T03:01:14.536Z,46.42
2022-12-01T03:03:52.249Z,46.34
2022-12-01T03:06:18.853Z,46.78
2022-12-01T03:08:57.363Z,46.91
2022-12-01T03:11:34.449Z,46.07
2022-12-01T03:14:09.474Z,46.35
2022-12-01T03:16:47.582Z,47.16
2022-12-01T03:19:28.165Z,46.43
2022-12-01T03:22:14.989Z,46.94
2022-12-01T03:24:45.378Z,46.04
2022-12-01T03:27:15.930Z,46.87
2022-12-01T03:29:45.018Z,46.14
2022-12-01T03:32:21.981Z,45.26
2022-12-01T03:34:56.472Z,45.87
2022-12-01T03:37:32.263Z,45.35
2022-12-01T03:40:01.069Z,46.00
2022-12-01T03:42:37.336Z,46.24
2022-12-01T03:45:15.513Z,45.73
2022-12-01T03:47:42.153Z,45.29
2022-12-01T03:50:14.281Z,44.76
2022-12-01T03:52:59.928Z,46.08
2022-12-01T03:55:29.401Z,46.15
2022-12-01T03:58:13.079Z,46.65
2022-12-01T04:00:40.192Z,45.23
2022-12-01T04:03:07.346Z,46.24
2022-12-01T04:05:35.018Z,44.18
2022-12-01T04:08:02.710Z,48.79
2022-12-01T04:10:29.317Z,49.60
2022-12-01T04:12:59.517Z,47.16
2022-12-01T04:15:27.194Z,47.21
2022-12-01T04:17:53.843Z,47.37
2022-12-01T04:20:20.554Z,46.69
2022-12-01T04:22:47.737Z,46.87
2022-12-01T04:25:14.240Z,47.26
2022-12-01T04:27:40.773Z,48.11
2022-12-01T04:30:08.126Z,48.61
2022-12-01T04:32:39.064Z,48.17
2022-12-01T04:35:06.647Z,48.54
2022-12-01T04:37:33.492Z,47.31
2022-12-01T04:39:59.998Z,46.63
2022-12-01T04:42:26.850Z,47.52
2022-12-01T04:44:53.308Z,49.29
2022-12-01T04:47:19.818Z,49.61
2022-12-01T04:49:46.590Z,49.36
2022-12-01T04:52:13.332Z,48.93
2022-12-01T04:54:39.861Z,49.93
2022-12-01T04:57:06.498Z,48.67
2022-12-01T04:59:33.103Z,49.83
2022-12-01T05:01:59.780Z,49.23
2022-12-01T05:04:26.317Z,49.17
2022-12-01T05:06:54.242Z,50.41
2022-12-01T05:09:21.410Z,49.58
2022-12-01T05:11:48.056Z,49.97
2022-12-01T05:14:14.657Z,49.68
2022-12-01T05:16:41.263Z,49.60
2022-12-01T05:19:26.585Z,49.07
2022-12-01T05:21:53.212Z,47.95
2022-12-01T05:24:20.871Z,49.46
2022-12-01T05:26:47.536Z,47.63
2022-12-01T05:29:14.215Z,49.08
2022-12-01T05:31:41.388Z,48.09
2022-12-01T05:34:09.104Z,48.21
2022-12-01T05:36:36.446Z,47.31
2022-12-01T05:39:03.489Z,46.54
2022-12-01T05:41:30.098Z,46.94
2022-12-01T05:43:56.628Z,47.57
2022-12-01T05:46:23.259Z,46.59
2022-12-01T05:48:49.879Z,45.81
2022-12-01T05:51:17.051Z,46.41
2022-12-01T05:53:44.334Z,45.46
2022-12-01T05:56:10.944Z,46.47
2022-12-01T05:58:37.625Z,46.43
2022-12-01T06:01:04.521Z,46.96
2022-12-01T06:03:31.201Z,46.16
2022-12-01T06:05:57.803Z,46.36
2022-12-01T06:08:24.433Z,45.26
2022-12-01T06:10:51.632Z,45.66
2022-12-01T06:13:18.147Z,46.01
2022-12-01T06:15:44.697Z,45.93
2022-12-01T06:18:11.293Z,45.18
2022-12-01T06:20:37.882Z,45.14
2022-12-01T06:23:04.502Z,46.08
2022-12-01T06:25:31.201Z,44.55
2022-12-01T06:27:58.412Z,45.38
2022-12-01T06:30:25.625Z,43.95
2022-12-01T06:32:52.344Z,44.07
2022-12-01T06:35:19.101Z,44.01
2022-12-01T06:37:45.614Z,44.89
2022-12-01T06:40:12.453Z,45.42
2022-12-01T06:42:39.051Z,44.29
2022-12-01T06:45:05.772Z,44.30
2022-12-01T06:47:32.693Z,43.71
2022-12-01T06:49:59.531Z,44.08
2022-12-01T06:52:26.051Z,44.17
2022-12-01T06:54:52.629Z,44.21
2022-12-01T06:57:19.731Z,45.28
2022-12-01T06:59:47.190Z,43.79
2022-12-01T07:02:14.482Z,44.04
2022-12-01T07:04:41.084Z,44.11
2022-12-01T07:07:07.722Z,44.91
2022-12-01T07:09:34.696Z,45.70
2022-12-01T07:12:01.207Z,45.76
2022-12-01T07:14:27.863Z,45.56
2022-12-01T07:16:55.081Z,45.21
2022-12-01T07:19:22.238Z,46.00
2022-12-01T07:21:49.015Z,46.31
2022-12-01T07:24:15.712Z,46.68
2022-12-01T07:26:42.767Z,46.32
2022-12-01T07:29:10.549Z,45.77
2022-12-01T07:31:37.712Z,46.03
2022-12-01T07:34:04.824Z,46.63
2022-12-01T07:36:31.654Z,46.33
2022-12-01T07:38:58.202Z,47.39
2022-12-01T07:41:24.792Z,45.93
2022-12-01T07:43:51.521Z,46.36
2022-12-01T07:46:23.116Z,47.46
2022-12-01T07:48:50.998Z,48.10
2022-12-01T07:51:18.461Z,45.47
2022-12-01T07:53:46.172Z,44.77
2022-12-01T07:56:13.124Z,46.96
2022-12-01T07:58:39.788Z,47.56
2022-12-01T08:01:12.499Z,46.82
2022-12-01T08:03:39.742Z,46.93
2022-12-01T08:06:07.423Z,47.36
2022-12-01T08:08:35.422Z,47.59
2022-12-01T08:11:03.554Z,46.90
2022-12-01T08:13:30.162Z,46.70
2022-12-01T08:15:56.813Z,45.03
2022-12-01T08:18:24.176Z,46.59
2022-12-01T08:20:50.903Z,46.75
2022-12-01T08:23:17.435Z,47.56
2022-12-01T08:25:43.914Z,46.15
2022-12-01T08:28:10.499Z,46.04
2022-12-01T08:30:37.139Z,46.70
2022-12-01T08:33:03.989Z,46.78
2022-12-01T08:35:30.505Z,46.07
2022-12-01T08:37:57.015Z,45.94
2022-12-01T08:40:23.628Z,47.19
2022-12-01T08:42:52.274Z,47.58
2022-12-01T08:45:19.045Z,47.60
2022-12-01T08:47:45.566Z,48.04
2022-12-01T08:50:12.396Z,47.01
2022-12-01T08:52:39.170Z,47.67
2022-12-01T08:55:06.139Z,47.95
2022-12-01T08:57:32.656Z,47.36
2022-12-01T08:59:59.191Z,47.34
2022-12-01T09:02:25.941Z,47.29
2022-12-01T09:04:52.519Z,49.02
2022-12-01T09:07:24.606Z,48.82
2022-12-01T09:09:53.159Z,48.29
2022-12-01T09:12:19.700Z,47.95
2022-12-01T09:14:48.348Z,47.76
2022-12-01T09:17:15.988Z,47.80
2022-12-01T09:19:42.891Z,47.36
2022-12-01T09:22:10.031Z,47.42
2022-12-01T09:24:36.672Z,48.05
2022-12-01T09:27:03.514Z,47.83
2022-12-01T09:29:30.528Z,49.34
2022-12-01T09:31:58.110Z,50.38
2022-12-01T09:34:25.061Z,48.63
2022-12-01T09:36:54.667Z,48.89
2022-12-01T09:39:21.513Z,47.18
2022-12-01T09:41:57.103Z,46.65
2022-12-01T09:44:26.662Z,47.99
2022-12-01T09:46:57.515Z,48.10
2022-12-01T09:49:44.516Z,48.60
2022-12-01T09:52:12.933Z,47.79
2022-12-01T09:54:40.028Z,46.37
2022-12-01T09:57:06.777Z,46.80
2022-12-01T09:59:37.660Z,46.73
2022-12-01T10:02:18.506Z,47.65
2022-12-01T10:04:48.516Z,45.48
2022-12-01T10:07:22.264Z,44.55
2022-12-01T10:09:49.059Z,46.32
2022-12-01T10:12:18.029Z,45.79
2022-12-01T10:14:46.162Z,45.51
2022-12-01T10:17:20.280Z,46.64
2022-12-01T10:19:52.898Z,45.56
2022-12-01T10:22:19.447Z,45.03
2022-12-01T10:24:48.942Z,43.86
2022-12-01T10:27:15.473Z,44.86
2022-12-01T10:29:48.365Z,45.33
2022-12-01T10:32:14.925Z,44.66
2022-12-01T10:34:43.278Z,44.73
2022-12-01T10:37:18.101Z,44.42
2022-12-01T10:39:47.473Z,43.94
2022-12-01T10:42:14.499Z,43.80
2022-12-01T10:44:42.552Z,42.95
2022-12-01T10:47:20.011Z,42.66
2022-12-01T10:49:46.774Z,41.85
2022-12-01T10:52:25.982Z,39.62
2022-12-01T10:54:52.477Z,34.63
2022-12-01T10:57:19.767Z,33.26
2022-12-01T10:59:58.495Z,33.57
2022-12-01T11:02:27.669Z,33.67
2022-12-01T11:04:57.427Z,34.32
2022-12-01T11:07:27.324Z,33.82
2022-12-01T11:10:00.288Z,31.44
2022-12-01T11:12:27.190Z,31.80
2022-12-01T11:14:55.922Z,33.36
2022-12-01T11:17:22.578Z,33.06
2022-12-01T11:19:49.655Z,32.58
2022-12-01T11:22:25.521Z,31.29
2022-12-01T11:24:55.171Z,28.63
2022-12-01T11:27:26.675Z,30.72
2022-12-01T11:29:57.145Z,32.35
2022-12-01T11:32:25.734Z,30.41
2022-12-01T11:35:00.151Z,31.54
2022-12-01T11:38:06.255Z,31.45
2022-12-01T11:40:38.586Z,30.51
2022-12-01T11:43:07.008Z,30.11
2022-12-01T11:45:37.239Z,31.30
2022-12-01T11:48:23.069Z,30.70
2022-12-01T11:51:04.653Z,29.78
2022-12-01T11:53:34.570Z,29.84
2022-12-01T11:56:20.985Z,29.90
2022-12-01T11:58:49.435Z,29.63
2022-12-01T12:01:20.535Z,28.43
2022-12-01T12:03:59.320Z,25.93
2022-12-01T12:06:46.232Z,24.64
2022-12-01T12:09:40.118Z,24.61
2022-12-01T12:12:10.040Z,26.68
2022-12-01T12:15:05.490Z,26.19
2022-12-01T12:17:46.409Z,25.76
2022-12-01T12:20:24.855Z,23.48
2022-12-01T12:23:03.702Z,22.54
2022-12-01T12:25:43.094Z,22.98
2022-12-01T12:28:12.474Z,21.40
2022-12-01T12:30:59.018Z,20.77
2022-12-01T12:33:44.760Z,20.55
2022-12-01T12:36:28.244Z,19.71
2022-12-01T12:39:03.445Z,18.94
2022-12-01T12:41:36.355Z,17.32
2022-12-01T12:44:02.889Z,17.95
2022-12-01T12:46:43.786Z,18.21
2022-12-01T12:49:20.954Z,17.32
2022-12-01T12:51:54.100Z,16.86
2022-12-01T12:54:44.101Z,17.07
2022-12-01T12:57:25.909Z,17.48
2022-12-01T13:00:12.685Z,18.25
2022-12-01T13:02:50.730Z,18.12
2022-12-01T13:05:23.539Z,17.67
2022-12-01T13:07:54.890Z,17.28
2022-12-01T13:10:22.820Z,17.36
2022-12-01T13:12:56.253Z,17.71
2022-12-01T13:15:23.046Z,16.85
2022-12-01T13:17:53.657Z,14.91
2022-12-01T13:20:24.940Z,14.82
2022-12-01T13:22:52.884Z,15.09
2022-12-01T13:25:26.672Z,15.46
2022-12-01T13:27:55.276Z,15.79
2022-12-01T13:30:25.115Z,16.53
2022-12-01T13:33:01.124Z,15.22
2022-12-01T13:35:30.428Z,15.38
2022-12-01T13:38:13.555Z,16.04
2022-12-01T13:40:40.187Z,15.95
2022-12-01T13:43:16.809Z,13.83
2022-12-01T13:45:43.492Z,13.72
2022-12-01T13:48:27.947Z,12.76
2022-12-01T13:50:59.777Z,12.81
2022-12-01T13:53:30.273Z,13.19
2022-12-01T13:56:02.825Z,12.20
2022-12-01T13:58:32.631Z,12.91
2022-12-01T14:01:17.819Z,13.22
2022-12-01T14:03:52.084Z,13.21
2022-12-01T14:06:50.830Z,13.77
2022-12-01T14:09:32.087Z,14.51
2022-12-01T14:12:24.965Z,14.87
2022-12-01T14:14:59.254Z,14.84
2022-12-01T14:17:38.695Z,15.00
2022-12-01T14:20:08.360Z,15.08
2022-12-01T14:22:35.081Z,13.52
2022-12-01T14:25:02.898Z,13.58
2022-12-01T14:27:40.334Z,12.78
2022-12-01T14:30:25.488Z,13.40
2022-12-01T14:32:52.074Z,12.86
2022-12-01T14:35:18.863Z,13.27
2022-12-01T14:37:48.448Z,13.87
2022-12-01T14:40:22.186Z,15.07
2022-12-01T14:43:10.304Z,15.11
2022-12-01T14:45:46.652Z,15.57
2022-12-01T14:48:16.982Z,15.30
2022-12-01T14:50:53.338Z,16.06
2022-12-01T14:53:19.795Z,15.87
2022-12-01T14:55:51.022Z,16.35
2022-12-01T14:58:20.170Z,16.49
2022-12-01T15:00:56.027Z,16.42
2022-12-01T15:03:28.947Z,17.29
2022-12-01T15:05:58.372Z,16.63
2022-12-01T15:08:41.880Z,16.48
2022-12-01T15:11:20.828Z,17.11
2022-12-01T15:13:48.995Z,17.72
2022-12-01T15:16:26.014Z,17.54
2022-12-01T15:18:53.118Z,17.30
2022-12-01T15:21:28.178Z,18.25
2022-12-01T15:24:03.198Z,18.12
2022-12-01T15:26:37.398Z,18.58
2022-12-01T15:29:25.405Z,20.71
2022-12-01T15:32:05.805Z,19.36
2022-12-01T15:34:38.189Z,17.51
2022-12-01T15:37:07.163Z,17.96
2022-12-01T15:39:41.582Z,18.77
2022-12-01T15:42:21.360Z,18.33
2022-12-01T15:45:00.370Z,19.49
2022-12-01T15:47:45.536Z,19.48
2022-12-01T15:50:31.210Z,19.45
2022-12-01T15:52:59.423Z,20.28
2022-12-01T15:55:28.790Z,19.88
2022-12-01T15:57:56.082Z,19.42
2022-12-01T16:00:23.146Z,20.08
2022-12-01T16:02:54.791Z,19.83
2022-12-01T16:05:26.724Z,20.07
2022-12-01T16:10:40.286Z,19.65
2022-12-01T16:13:25.353Z,19.54
2022-12-01T16:15:52.056Z,19.64
2022-12-01T16:18:26.999Z,19.60
2022-12-01T16:20:54.071Z,19.93
2022-12-01T16:23:24.678Z,19.80
2022-12-01T16:25:51.519Z,19.92
2022-12-01T16:28:26.756Z,20.60
2022-12-01T16:30:53.849Z,19.80
2022-12-01T16:33:25.371Z,20.63
2022-12-01T16:35:52.459Z,20.81
2022-12-01T16:38:22.519Z,22.46
2022-12-01T16:40:50.604Z,24.94
2022-12-01T16:43:18.638Z,25.03
2022-12-01T16:45:46.504Z,24.95
2022-12-01T16:48:13.261Z,25.41
2022-12-01T16:50:39.998Z,28.06
2022-12-01T16:53:06.525Z,36.33
2022-12-01T16:55:44.037Z,33.12
2022-12-01T16:58:10.554Z,28.85
2022-12-01T17:00:37.335Z,25.19
2022-12-01T17:03:04.374Z,23.12
2022-12-01T17:05:31.482Z,23.57
2022-12-01T17:07:58.066Z,23.42
2022-12-01T17:10:25.271Z,23.57
2022-12-01T17:12:51.759Z,23.24
2022-12-01T17:15:18.613Z,22.94
2022-12-01T17:17:45.198Z,23.23
2022-12-01T17:20:12.043Z,23.37
2022-12-01T17:22:38.801Z,22.36
2022-12-01T17:25:06.080Z,22.29
2022-12-01T17:27:32.763Z,23.26
2022-12-01T17:29:59.410Z,23.61
2022-12-01T17:32:26.953Z,24.47
2022-12-01T17:34:53.712Z,24.18
2022-12-01T17:37:21.532Z,24.18
2022-12-01T17:39:49.396Z,23.32
2022-12-01T17:42:16.080Z,23.22
2022-12-01T17:44:42.603Z,23.02
2022-12-01T17:47:09.241Z,23.32
2022-12-01T17:49:36.417Z,26.26
2022-12-01T17:52:03.934Z,25.51
2022-12-01T17:54:30.782Z,24.35
2022-12-01T17:56:57.361Z,22.71
2022-12-01T17:59:24.106Z,24.12
2022-12-01T18:01:50.852Z,22.41
2022-12-01T18:04:17.434Z,24.94
2022-12-01T18:06:46.844Z,24.08
2022-12-01T18:09:15.878Z,23.58
2022-12-01T18:11:42.364Z,22.19
2022-12-01T18:14:09.126Z,22.42
2022-12-01T18:16:35.743Z,22.60
2022-12-01T18:19:02.485Z,23.10
2022-12-01T18:21:29.127Z,23.39
2022-12-01T18:23:57.316Z,23.27
2022-12-01T18:26:24.648Z,24.02
2022-12-01T18:29:01.879Z,23.93
2022-12-01T18:31:29.338Z,24.28
2022-12-01T18:33:58.481Z,23.55
2022-12-01T18:36:25.943Z,23.94
2022-12-01T18:38:53.502Z,23.51
2022-12-01T18:41:20.666Z,23.31
2022-12-01T18:43:47.760Z,23.26
2022-12-01T18:46:15.890Z,22.78
2022-12-01T18:48:44.863Z,22.47
2022-12-01T18:51:11.820Z,22.08
2022-12-01T18:53:38.366Z,22.29
2022-12-01T18:56:06.406Z,21.45
2022-12-01T18:58:33.091Z,21.84
2022-12-01T19:01:01.159Z,21.61
2022-12-01T19:03:31.568Z,21.74
2022-12-01T19:05:58.505Z,21.15
2022-12-01T19:08:25.226Z,20.34
2022-12-01T19:10:59.291Z,20.12
2022-12-01T19:13:25.870Z,18.27
2022-12-01T19:15:52.665Z,20.53
2022-12-01T19:18:19.255Z,20.31
2022-12-01T19:20:45.784Z,20.60
2022-12-01T19:23:12.379Z,21.52
2022-12-01T19:25:39.438Z,21.81
2022-12-01T19:28:06.099Z,22.55
2022-12-01T19:30:32.668Z,22.14
2022-12-01T19:32:59.376Z,20.27
2022-12-01T19:35:26.052Z,19.51
2022-12-01T19:37:52.956Z,20.07
2022-12-01T19:40:19.498Z,19.55
2022-12-01T19:42:46.060Z,19.69
2022-12-01T19:45:12.570Z,18.90
2022-12-01T19:47:39.447Z,19.02
2022-12-01T19:50:06.347Z,19.66
2022-12-01T19:52:34.058Z,19.24
2022-12-01T19:55:01.505Z,18.78
2022-12-01T19:57:28.145Z,20.04
2022-12-01T19:59:54.659Z,21.76
2022-12-01T20:02:27.580Z,22.82
2022-12-01T20:04:56.614Z,22.03
2022-12-01T20:07:23.205Z,20.37
2022-12-01T20:09:50.335Z,21.65
2022-12-01T20:12:17.001Z,22.76
2022-12-01T20:14:43.714Z,23.54
2022-12-01T20:17:15.585Z,24.14
2022-12-01T20:19:42.529Z,24.49
2022-12-01T20:22:09.153Z,22.51
2022-12-01T20:24:39.508Z,25.99
2022-12-01T20:27:06.043Z,27.07
2022-12-01T20:29:32.583Z,26.19
2022-12-01T20:32:03.210Z,26.51
2022-12-01T20:34:32.192Z,28.23
2022-12-01T20:36:59.443Z,29.11
2022-12-01T20:39:27.149Z,30.87
2022-12-01T20:41:54.004Z,30.10
2022-12-01T20:44:20.860Z,29.95
2022-12-01T20:46:47.995Z,30.31
2022-12-01T20:49:15.442Z,30.57
2022-12-01T20:51:41.964Z,30.15
2022-12-01T20:54:28.190Z,30.92
2022-12-01T20:56:55.126Z,31.34
2022-12-01T20:59:21.782Z,31.30
2022-12-01T21:01:48.410Z,31.21
2022-12-01T21:04:14.948Z,31.92
2022-12-01T21:06:42.273Z,31.74
2022-12-01T21:09:08.908Z,31.69
2022-12-01T21:12:00.947Z,34.45
2022-12-01T21:14:35.772Z,35.77
2022-12-01T21:17:20.439Z,36.66
2022-12-01T21:19:49.726Z,37.67
2022-12-01T21:22:16.410Z,36.33
2022-12-01T21:24:44.300Z,39.40
2022-12-01T21:27:15.205Z,39.42
2022-12-01T21:29:44.418Z,39.21
2022-12-01T21:32:15.732Z,39.97
2022-12-01T21:34:44.515Z,38.74
2022-12-01T21:37:19.254Z,38.01
2022-12-01T21:39:48.359Z,39.43
2022-12-01T21:42:18.459Z,39.14
2022-12-01T21:44:45.539Z,38.77
2022-12-01T21:47:22.393Z,39.02
2022-12-01T21:49:53.543Z,38.91
2022-12-01T21:52:22.337Z,39.05
2022-12-01T21:54:49.806Z,39.10
2022-12-01T21:57:29.001Z,39.06
2022-12-01T22:00:05.908Z,38.33
2022-12-01T22:02:52.268Z,38.62
2022-12-01T22:06:06.875Z,38.68
2022-12-01T22:08:35.943Z,38.40
2022-12-01T22:11:12.800Z,38.72
2022-12-01T22:13:48.452Z,38.13
2022-12-01T22:16:14.952Z,38.30
2022-12-01T22:18:43.081Z,38.33
2022-12-01T22:21:21.873Z,37.40
2022-12-01T22:23:49.291Z,38.26
2022-12-01T22:26:20.575Z,39.41
2022-12-01T22:28:52.858Z,40.55
2022-12-01T22:31:20.986Z,41.02
2022-12-01T22:33:48.091Z,41.02
2022-12-01T22:36:22.145Z,42.32
2022-12-01T22:38:49.861Z,43.22
2022-12-01T22:41:19.180Z,44.06
2022-12-01T22:43:54.999Z,44.65
2022-12-01T22:46:26.020Z,45.80
2022-12-01T22:48:57.558Z,46.37
2022-12-01T22:51:26.880Z,45.05
2022-12-01T22:53:57.691Z,44.44
2022-12-01T22:56:30.395Z,46.95
2022-12-01T22:58:57.003Z,49.88
2022-12-01T23:01:29.390Z,50.49
2022-12-01T23:04:11.340Z,48.84
2022-12-01T23:06:58.750Z,51.79
2022-12-01T23:09:36.777Z,51.40
2022-12-01T23:12:12.498Z,50.51
2022-12-01T23:14:43.111Z,52.54
2022-12-01T23:17:30.947Z,53.23
2022-12-01T23:20:20.427Z,51.95
2022-12-01T23:22:47.603Z,53.70
2022-12-01T23:25:18.531Z,53.87
2022-12-01T23:27:46.737Z,54.85
2022-12-01T23:30:14.610Z,54.50
2022-12-01T23:32:41.808Z,54.52
2022-12-01T23:35:15.355Z,54.78
2022-12-01T23:37:43.984Z,56.01
2022-12-01T23:40:20.764Z,56.16
2022-12-01T23:42:47.722Z,56.03
2022-12-01T23:45:20.525Z,56.21
2022-12-01T23:47:47.860Z,56.82
2022-12-01T23:50:23.380Z,57.78
2022-12-01T23:52:50.326Z,57.98
2022-12-01T23:55:22.805Z,59.08
2022-12-01T23:57:50.182Z,57.71
